createdAt,value
2022-11-15T00:03:18.650Z,5.90
2022-11-15T00:08:39.564Z,6.00
2022-11-15T00:14:03.321Z,5.90
2022-11-15T00:19:24.045Z,5.90
2022-11-15T00:24:44.990Z,5.90
2022-11-15T00:30:06.574Z,6.00
2022-11-15T00:35:29.666Z,6.00
2022-11-15T00:40:50.337Z,6.10
2022-11-15T00:46:11.564Z,6.00
2022-11-15T00:51:32.810Z,6.00
2022-11-15T00:56:53.597Z,5.90
2022-11-15T01:02:14.792Z,6.00
2022-11-15T01:07:35.564Z,6.00
2022-11-15T01:12:56.546Z,6.00
2022-11-15T01:18:17.596Z,5.90
2022-11-15T01:23:39.117Z,5.90
2022-11-15T01:29:00.161Z,5.80
2022-11-15T01:34:21.189Z,5.90
2022-11-15T01:39:42.523Z,5.90
2022-11-15T01:45:03.749Z,5.90
2022-11-15T01:50:30.313Z,5.90
2022-11-15T01:55:51.955Z,5.80
2022-11-15T02:01:14.874Z,5.80
2022-11-15T02:06:37.293Z,5.90
2022-11-15T02:12:00.271Z,5.80
2022-11-15T02:17:48.399Z,5.70
2022-11-15T02:23:44.347Z,5.70
2022-11-15T02:29:09.730Z,5.70
2022-11-15T02:34:48.969Z,5.70
2022-11-15T02:40:22.994Z,5.70
2022-11-15T02:45:52.813Z,5.70
2022-11-15T02:51:15.036Z,5.60
2022-11-15T02:56:36.212Z,5.60
2022-11-15T03:02:17.758Z,5.50
2022-11-15T03:08:02.801Z,5.60
2022-11-15T03:13:45.662Z,5.60
2022-11-15T03:19:34.866Z,5.50
2022-11-15T03:25:01.778Z,5.50
2022-11-15T03:30:23.075Z,5.40
2022-11-15T03:35:47.036Z,5.50
2022-11-15T03:41:17.055Z,5.40
2022-11-15T03:46:43.741Z,5.50
2022-11-15T03:52:06.200Z,5.50
2022-11-15T03:57:27.154Z,5.40
2022-11-15T04:02:48.126Z,5.60
2022-11-15T04:08:09.273Z,5.60
2022-11-15T04:13:30.386Z,5.60
2022-11-15T04:19:11.493Z,5.60
2022-11-15T04:24:32.338Z,5.60
2022-11-15T04:29:53.107Z,5.60
2022-11-15T04:35:14.174Z,5.60
2022-11-15T04:40:35.415Z,5.70
2022-11-15T04:45:56.658Z,5.70
2022-11-15T04:51:17.752Z,5.70
2022-11-15T04:56:39.297Z,5.50
2022-11-15T05:02:00.112Z,5.60
2022-11-15T05:07:21.096Z,5.60
2022-11-15T05:12:41.918Z,5.50
2022-11-15T05:18:03.400Z,5.50
2022-11-15T05:23:24.107Z,5.50
2022-11-15T05:28:45.196Z,5.50
2022-11-15T05:34:06.930Z,5.50
2022-11-15T05:39:27.537Z,5.60
2022-11-15T05:44:50.678Z,5.50
2022-11-15T05:50:15.299Z,5.50
2022-11-15T05:55:36.115Z,5.50
2022-11-15T06:00:57.095Z,5.40
2022-11-15T06:06:18.057Z,5.40
2022-11-15T06:11:39.078Z,5.30
2022-11-15T06:16:59.994Z,5.30
2022-11-15T06:22:20.864Z,5.30
2022-11-15T06:27:41.863Z,5.30
2022-11-15T06:33:04.828Z,5.20
2022-11-15T06:38:25.906Z,5.30
2022-11-15T06:43:46.681Z,5.10
2022-11-15T06:49:09.703Z,5.10
2022-11-15T06:54:31.381Z,5.30
2022-11-15T06:59:52.383Z,5.30
2022-11-15T07:05:14.286Z,5.30
2022-11-15T07:10:35.135Z,5.40
2022-11-15T07:15:56.475Z,5.40
2022-11-15T07:21:17.398Z,5.40
2022-11-15T07:26:38.374Z,5.40
2022-11-15T07:32:00.787Z,5.30
2022-11-15T07:37:21.761Z,5.40
2022-11-15T07:42:55.189Z,5.60
2022-11-15T07:48:15.892Z,5.60
2022-11-15T07:53:36.807Z,5.60
2022-11-15T07:58:58.702Z,5.70
2022-11-15T08:04:19.706Z,5.70
2022-11-15T08:09:40.660Z,5.80
2022-11-15T08:15:01.829Z,5.80
2022-11-15T08:20:22.766Z,5.90
2022-11-15T08:25:43.832Z,5.80
2022-11-15T08:31:05.861Z,5.90
2022-11-15T08:36:28.766Z,5.90
2022-11-15T08:41:52.123Z,5.90
2022-11-15T08:47:14.664Z,6.00
2022-11-15T08:52:35.392Z,6.10
2022-11-15T08:57:58.662Z,6.20
2022-11-15T09:03:20.051Z,6.30
2022-11-15T09:08:47.438Z,6.30
2022-11-15T09:14:11.571Z,6.30
2022-11-15T09:19:32.856Z,6.40
2022-11-15T09:24:53.931Z,6.50
2022-11-15T09:30:15.077Z,6.70
2022-11-15T09:35:36.189Z,6.60
2022-11-15T09:41:52.939Z,6.80
2022-11-15T09:47:34.612Z,6.80
2022-11-15T09:53:01.729Z,6.90
2022-11-15T09:58:18.729Z,6.90
2022-11-15T10:03:25.411Z,7.00
2022-11-15T10:09:05.649Z,6.90
2022-11-15T10:14:26.571Z,7.00
2022-11-15T10:19:51.933Z,7.00
2022-11-15T10:25:12.900Z,7.20
2022-11-15T10:30:18.316Z,7.40
2022-11-15T10:35:30.079Z,7.30
2022-11-15T10:40:32.421Z,7.30
2022-11-15T10:45:35.416Z,7.20
2022-11-15T10:50:37.910Z,7.30
2022-11-15T10:55:46.788Z,7.40
2022-11-15T11:00:49.178Z,7.60
2022-11-15T11:06:05.562Z,7.50
2022-11-15T11:11:09.393Z,7.60
2022-11-15T11:16:14.514Z,7.90
2022-11-15T11:21:31.032Z,7.90
2022-11-15T11:27:05.989Z,7.90
2022-11-15T11:32:26.041Z,8.00
2022-11-15T11:37:40.673Z,8.00
2022-11-15T11:43:10.253Z,8.00
2022-11-15T11:48:43.186Z,8.00
2022-11-15T11:53:57.420Z,8.10
2022-11-15T11:59:32.273Z,8.00
2022-11-15T12:04:41.093Z,8.00
2022-11-15T12:09:59.742Z,8.00
2022-11-15T12:15:11.209Z,8.00
2022-11-15T12:20:18.682Z,8.10
2022-11-15T12:25:38.989Z,8.10
2022-11-15T12:30:52.159Z,8.10
2022-11-15T12:36:04.265Z,8.10
2022-11-15T12:41:18.524Z,8.20
2022-11-15T12:46:25.500Z,8.20
2022-11-15T12:51:52.979Z,8.20
2022-11-15T12:57:04.902Z,8.00
2022-11-15T13:02:18.746Z,8.20
2022-11-15T13:07:36.675Z,8.30
2022-11-15T13:12:45.319Z,8.00
2022-11-15T13:18:00.432Z,8.10
2022-11-15T13:23:10.371Z,8.10
2022-11-15T13:28:24.418Z,8.00
2022-11-15T13:33:38.522Z,8.00
2022-11-15T13:38:42.021Z,7.90
2022-11-15T13:43:44.866Z,7.80
2022-11-15T13:48:51.833Z,7.80
2022-11-15T13:54:10.415Z,7.80
2022-11-15T13:59:23.979Z,7.70
2022-11-15T14:04:30.717Z,7.70
2022-11-15T14:09:37.413Z,7.70
2022-11-15T14:14:47.148Z,7.60
2022-11-15T14:19:49.460Z,7.60
2022-11-15T14:25:23.684Z,7.50
2022-11-15T14:30:25.994Z,7.50
2022-11-15T14:35:28.455Z,7.40
2022-11-15T14:40:30.816Z,7.40
2022-11-15T14:45:33.246Z,7.50
2022-11-15T14:50:36.217Z,7.40
2022-11-15T14:55:38.573Z,7.40
2022-11-15T15:00:42.402Z,7.40
2022-11-15T15:05:45.489Z,7.20
2022-11-15T15:10:47.911Z,7.10
2022-11-15T15:15:55.585Z,7.20
2022-11-15T15:21:07.957Z,7.00
2022-11-15T15:26:10.604Z,7.20
2022-11-15T15:31:13.238Z,7.30
2022-11-15T15:36:19.198Z,7.20
2022-11-15T15:41:22.226Z,7.20
2022-11-15T15:46:25.915Z,7.20
2022-11-15T15:51:28.262Z,7.20
2022-11-15T15:56:30.638Z,7.20
2022-11-15T16:01:35.347Z,7.20
2022-11-15T16:06:41.311Z,7.20
2022-11-15T16:11:46.328Z,7.20
2022-11-15T16:16:52.048Z,7.30
2022-11-15T16:21:54.494Z,7.20
2022-11-15T16:26:56.979Z,7.20
2022-11-15T16:31:59.460Z,7.20
2022-11-15T16:37:01.915Z,7.30
2022-11-15T16:42:04.365Z,7.20
2022-11-15T16:47:22.933Z,7.30
2022-11-15T16:52:25.376Z,7.30
2022-11-15T16:57:27.775Z,7.50
2022-11-15T17:02:30.132Z,7.40
2022-11-15T17:07:32.610Z,7.30
2022-11-15T17:12:35.551Z,7.30
2022-11-15T17:17:38.493Z,7.20
2022-11-15T17:22:40.855Z,7.30
2022-11-15T17:27:43.371Z,7.20
2022-11-15T17:32:47.889Z,7.20
2022-11-15T17:37:50.226Z,7.20
2022-11-15T17:42:53.316Z,7.30
2022-11-15T17:47:55.718Z,7.20
2022-11-15T17:53:00.086Z,7.10
2022-11-15T17:58:02.400Z,7.20
2022-11-15T18:03:04.906Z,7.10
2022-11-15T18:08:10.247Z,7.10
2022-11-15T18:13:16.612Z,7.10
2022-11-15T18:18:19.137Z,7.10
2022-11-15T18:23:21.439Z,7.10
2022-11-15T18:28:30.491Z,7.10
2022-11-15T18:33:37.201Z,7.10
2022-11-15T18:38:40.064Z,7.10
2022-11-15T18:43:42.381Z,7.20
2022-11-15T18:49:14.371Z,7.20
2022-11-15T18:54:19.860Z,7.10
2022-11-15T18:59:22.451Z,7.10
2022-11-15T19:04:24.995Z,7.10
2022-11-15T19:09:32.830Z,7.10
2022-11-15T19:14:35.522Z,7.20
2022-11-15T19:19:41.070Z,7.10
2022-11-15T19:24:47.972Z,7.10
2022-11-15T19:30:19.705Z,7.20
2022-11-15T19:35:33.979Z,7.10
2022-11-15T19:40:55.598Z,7.10
2022-11-15T19:46:18.442Z,7.10
2022-11-15T19:51:34.008Z,7.00
2022-11-15T19:56:37.447Z,7.00
2022-11-15T20:01:40.025Z,7.00
2022-11-15T20:06:43.514Z,7.00
2022-11-15T20:11:46.111Z,7.00
2022-11-15T20:16:53.955Z,7.10
2022-11-15T20:21:56.752Z,7.00
2022-11-15T20:26:59.133Z,7.00
2022-11-15T20:32:01.453Z,7.10
2022-11-15T20:37:03.771Z,7.00
2022-11-15T20:42:06.216Z,7.00
2022-11-15T20:47:08.534Z,7.00
2022-11-15T20:52:10.894Z,7.10
2022-11-15T20:57:13.483Z,7.10
2022-11-15T21:02:16.058Z,7.00
2022-11-15T21:07:18.536Z,7.00
2022-11-15T21:12:20.944Z,7.00
2022-11-15T21:17:23.344Z,7.00
2022-11-15T21:22:26.159Z,7.00
2022-11-15T21:27:28.607Z,7.00
2022-11-15T21:32:31.193Z,7.00
2022-11-15T21:37:33.608Z,7.00
2022-11-15T21:42:36.049Z,6.90
2022-11-15T21:47:42.038Z,7.00
2022-11-15T21:52:47.988Z,7.00
2022-11-15T21:57:50.317Z,7.00
2022-11-15T22:02:52.705Z,7.00
2022-11-15T22:07:55.189Z,7.00
2022-11-15T22:12:57.829Z,6.90
2022-11-15T22:18:00.712Z,6.80
2022-11-15T22:23:03.878Z,6.90
2022-11-15T22:28:06.528Z,6.90
2022-11-15T22:33:09.206Z,6.80
2022-11-15T22:38:11.922Z,6.80
2022-11-15T22:43:16.299Z,6.90
2022-11-15T22:48:37.033Z,6.90
2022-11-15T22:53:39.892Z,6.90
2022-11-15T22:58:42.596Z,6.90
2022-11-15T23:03:45.365Z,6.80
2022-11-15T23:08:48.053Z,6.80
2022-11-15T23:13:52.305Z,6.80
2022-11-15T23:18:59.572Z,6.80
2022-11-15T23:24:02.482Z,6.80
2022-11-15T23:29:06.546Z,6.90
2022-11-15T23:34:09.617Z,6.80
2022-11-15T23:39:12.537Z,6.80
2022-11-15T23:44:15.439Z,6.80
2022-11-15T23:49:18.207Z,6.80
2022-11-15T23:54:20.923Z,6.80
2022-11-15T23:59:23.639Z,6.80
